map of UME home
UME - Airport
Location
City:  Umeå, Västerbottens län, Sweden
ICAO:ESNU
IATA:UME

Details
Type:Airport (Aerodrome, Airfield)
Use:Public/Civil
Latitude:63°47'31"N (63.791828)
Longitude:20°16'58"E (20.282758)
Datum:WGS 1984
Elevation:24 ft (7 m)
Variation:8.01°E (WMM2015 magnetic declination)
0.18° annual change
Runways:1
Longest:7551 × 148 ft (2302 × 45 m), paved

Time
Time Zone:UTC+1 (DST+2)
Local Time:

Weather
METAR:ESNU 231350Z 01006KT 9999 -SN FEW006 SCT008 OVC012 M10/M14 Q1035 R14/72//60

Related Locations
Nearby:
Farthest:NZTB: 11296 mi / 18180 km
Terra Nova Bay [Mario Zucchelli Station], AQ

Find:

   beyond  
but within

Other Information
Maps:
NOTAMs:
Links:
Sources:

  
flag of Sweden   

Sectional Chart

Flight Planning
at skyvector.com

Satellite Image

Google Maps Satellite view

 

Copyright © 2004-2018 Karl L. Swartz. All rights reserved.
The Great Circle Mapper name and logo are trademarks of the Great Circle Mapper.
All other trademarks mentioned herein belong to their respective owners.
Please see credits for attibutions and further copyright information.

  Follow gcmap on Facebook Follow gcmap on Twitter Follow gcmap on Google+ GCmap on LinkedIn

hCard Microformat

Geo Microformat